Time;durP1;ratioP1;P1;durP2;ratioP2;P2;SDS_P1;SDS_P2;PMS_P1;PMS_P2;Temp;Humidity;BMP_temperature;BMP_pressure;BME280_temperature;BME280_humidity;BME280_pressure;Samples;Min_cycle;Max_cycle;Signal;HPM_P1;HPM_P2
2021/06/21 00:00:00;;;;;;;6.90;2.97;;;21.00;99.90;;;;;;4991199;28;20710;-74
2021/06/21 00:02:26;;;;;;;7.23;2.90;;;20.90;99.90;;;;;;4991347;28;20212;-74
2021/06/21 00:04:52;;;;;;;6.80;2.77;;;20.90;99.90;;;;;;4990904;28;20176;-74
2021/06/21 00:07:18;;;;;;;7.47;3.23;;;20.80;99.90;;;;;;4974864;28;20188;-74
2021/06/21 00:09:44;;;;;;;5.53;3.10;;;20.80;99.90;;;;;;4991064;28;20235;-74
2021/06/21 00:12:13;;;;;;;5.27;2.93;;;20.80;99.90;;;;;;4975399;28;20188;-74
2021/06/21 00:14:39;;;;;;;6.30;3.00;;;20.70;99.90;;;;;;4991064;28;20521;-74
2021/06/21 00:17:05;;;;;;;5.83;3.10;;;20.70;99.90;;;;;;4991838;28;20203;-74
2021/06/21 00:19:30;;;;;;;7.67;3.43;;;20.60;99.90;;;;;;4995145;28;20640;-74
2021/06/21 00:21:56;;;;;;;6.90;3.00;;;20.50;99.90;;;;;;4994939;28;20303;-74
2021/06/21 00:24:22;;;;;;;5.90;2.93;;;20.50;99.90;;;;;;4994978;28;20180;-74
2021/06/21 00:26:48;;;;;;;6.43;3.37;;;20.40;99.90;;;;;;4978416;28;20223;-74
2021/06/21 00:29:13;;;;;;;6.63;3.00;;;20.40;99.90;;;;;;4994771;28;20287;-74
2021/06/21 00:31:39;;;;;;;6.60;3.50;;;20.40;99.90;;;;;;4978686;28;20212;-74
2021/06/21 00:34:04;;;;;;;9.20;3.63;;;20.40;99.90;;;;;;4994545;28;20596;-74
2021/06/21 00:36:30;;;;;;;8.33;3.60;;;20.30;99.90;;;;;;4994672;28;20211;-74
2021/06/21 00:38:55;;;;;;;7.43;3.70;;;20.30;99.90;;;;;;4978489;28;20195;-74
2021/06/21 00:41:21;;;;;;;6.50;4.00;;;20.20;99.90;;;;;;4994395;28;20347;-74
2021/06/21 00:43:47;;;;;;;6.20;3.80;;;20.20;99.90;;;;;;4994371;28;20188;-74
2021/06/21 00:46:12;;;;;;;9.67;4.73;;;20.10;99.90;;;;;;4994256;28;20200;-74
2021/06/21 00:48:38;;;;;;;11.00;5.40;;;20.10;99.90;;;;;;4978167;28;20188;-74
2021/06/21 00:51:04;;;;;;;13.60;6.17;;;20.00;99.90;;;;;;4994271;28;20179;-74
2021/06/21 00:53:29;;;;;;;11.87;5.90;;;19.80;99.90;;;;;;4994129;28;20180;-74
2021/06/21 00:55:55;;;;;;;10.10;6.80;;;19.60;99.90;;;;;;4993997;28;20205;-73
2021/06/21 00:58:21;;;;;;;10.83;6.43;;;19.20;99.90;;;;;;4994240;28;20216;-73
2021/06/21 01:00:46;;;;;;;10.67;6.87;;;19.00;99.90;;;;;;4977906;28;20200;-73
2021/06/21 01:03:12;;;;;;;10.57;7.27;;;18.80;99.90;;;;;;4994189;28;20180;-74
2021/06/21 01:05:39;;;;;;;12.30;6.93;;;18.80;99.90;;;;;;4994693;28;20211;-74
2021/06/21 01:08:08;;;;;;;11.10;7.20;;;18.70;99.90;;;;;;4994368;28;20172;-74
2021/06/21 01:10:35;;;;;;;9.67;7.37;;;18.70;99.90;;;;;;4994152;28;20176;-73
2021/06/21 01:13:26;;;;;;;12.30;7.60;;;18.60;99.90;;;;;;4977398;28;20184;-74
2021/06/21 01:15:56;;;;;;;13.57;8.53;;;18.60;99.90;;;;;;4993615;28;20211;-73
2021/06/21 01:18:29;;;;;;;10.60;8.37;;;18.50;99.90;;;;;;4977481;28;20242;-73
2021/06/21 01:21:21;;;;;;;13.77;9.33;;;18.40;99.90;;;;;;4993799;28;20257;-73
2021/06/21 01:24:08;;;;;;;12.83;8.40;;;18.20;99.90;;;;;;4994705;28;20172;-74
2021/06/21 01:26:43;;;;;;;10.97;9.70;;;18.10;99.90;;;;;;4994715;28;20606;-74
2021/06/21 01:29:44;;;;;;;15.90;10.97;;;18.10;99.90;;;;;;4994252;28;20172;-74
2021/06/21 01:32:12;;;;;;;16.07;12.53;;;17.90;99.90;;;;;;4993579;28;20184;-74
2021/06/21 01:34:46;;;;;;;16.43;11.97;;;17.80;99.90;;;;;;4993314;28;20176;-74
2021/06/21 01:37:12;;;;;;;20.53;15.50;;;17.80;99.90;;;;;;4994481;28;20684;-74
2021/06/21 01:39:38;;;;;;;18.30;16.00;;;17.80;99.90;;;;;;4993357;28;20633;-74
2021/06/21 01:42:08;;;;;;;19.73;15.93;;;17.70;99.90;;;;;;4993248;28;20219;-74
2021/06/21 01:44:39;;;;;;;20.10;16.63;;;17.60;99.90;;;;;;4993341;28;20180;-74
2021/06/21 01:47:04;;;;;;;24.27;15.90;;;17.60;99.90;;;;;;4977520;28;20295;-74
2021/06/21 01:49:32;;;;;;;21.00;14.40;;;17.50;99.90;;;;;;4976870;28;20264;-74
2021/06/21 01:51:59;;;;;;;20.27;14.13;;;17.40;99.90;;;;;;4993143;28;20181;-74
2021/06/21 01:54:26;;;;;;;15.10;13.47;;;17.50;99.90;;;;;;4992872;28;20212;-74
2021/06/21 01:56:51;;;;;;;16.97;14.33;;;17.40;99.90;;;;;;4993230;28;20564;-74
2021/06/21 01:59:17;;;;;;;19.77;14.83;;;17.30;99.90;;;;;;4976696;28;20647;-74
2021/06/21 02:01:43;;;;;;;17.07;15.27;;;17.30;99.90;;;;;;4992979;28;20612;-74
2021/06/21 02:04:08;;;;;;;24.27;16.90;;;17.30;99.90;;;;;;4992784;28;20177;-74
2021/06/21 02:06:34;;;;;;;17.30;13.17;;;17.20;99.90;;;;;;4992777;28;20212;-74
2021/06/21 02:09:03;;;;;;;16.30;13.37;;;17.20;99.90;;;;;;4992851;28;20177;-74
2021/06/21 02:11:29;;;;;;;14.30;12.80;;;17.00;99.90;;;;;;4976796;28;20180;-74
2021/06/21 02:13:55;;;;;;;18.17;14.83;;;17.00;99.90;;;;;;4993539;28;20194;-74
2021/06/21 02:16:21;;;;;;;16.63;13.17;;;16.90;99.90;;;;;;4992676;28;20227;-74
2021/06/21 02:18:47;;;;;;;17.50;15.20;;;16.90;99.90;;;;;;4992397;28;20182;-75
2021/06/21 02:21:13;;;;;;;16.27;13.63;;;16.80;99.90;;;;;;4992586;28;20212;-75
2021/06/21 02:23:39;;;;;;;15.90;12.53;;;16.70;99.90;;;;;;4992236;28;20668;-74
2021/06/21 02:26:04;;;;;;;18.23;14.33;;;16.60;99.90;;;;;;4992505;28;20576;-74
2021/06/21 02:28:30;;;;;;;18.50;14.83;;;16.60;99.90;;;;;;4976195;28;20199;-74
2021/06/21 02:30:58;;;;;;;20.33;15.73;;;16.50;99.90;;;;;;4992339;28;20183;-74
2021/06/21 02:33:23;;;;;;;20.53;15.97;;;16.50;99.90;;;;;;4993381;28;20169;-74
2021/06/21 02:35:49;;;;;;;21.93;17.97;;;16.40;99.90;;;;;;4992147;28;20678;-74
2021/06/21 02:38:14;;;;;;;21.00;18.77;;;16.40;99.90;;;;;;4991637;28;20188;-74
2021/06/21 02:40:40;;;;;;;22.10;19.70;;;16.40;99.90;;;;;;4991215;28;20210;-74
2021/06/21 02:43:06;;;;;;;22.00;19.43;;;16.30;99.90;;;;;;4975747;28;20628;-74
2021/06/21 02:45:31;;;;;;;26.47;20.10;;;16.30;99.90;;;;;;4991981;28;20279;-74
2021/06/21 02:47:57;;;;;;;29.43;21.07;;;16.30;99.90;;;;;;4992152;28;20203;-74
2021/06/21 02:50:23;;;;;;;23.00;20.47;;;16.30;99.90;;;;;;4992049;28;20176;-74
2021/06/21 02:53:02;;;;;;;27.57;21.07;;;16.30;99.90;;;;;;4992980;28;20180;-74
2021/06/21 02:55:27;;;;;;;24.73;21.40;;;16.30;99.90;;;;;;4992861;28;20566;-74
2021/06/21 02:57:58;;;;;;;24.13;21.53;;;16.30;99.90;;;;;;4993174;28;20184;-74
2021/06/21 03:00:24;;;;;;;23.77;21.10;;;16.30;99.90;;;;;;4992109;28;20168;-74
2021/06/21 03:02:50;;;;;;;27.03;21.50;;;16.20;99.90;;;;;;4991810;28;20176;-74
2021/06/21 03:05:16;;;;;;;26.23;20.90;;;16.20;99.90;;;;;;4976748;28;20351;-74
2021/06/21 03:07:42;;;;;;;23.87;21.03;;;16.20;99.90;;;;;;4993472;28;20636;-74
2021/06/21 03:10:08;;;;;;;22.87;19.63;;;16.20;99.90;;;;;;4976884;28;20180;-74
2021/06/21 03:12:33;;;;;;;21.90;18.13;;;16.10;99.90;;;;;;4976843;28;20706;-74
2021/06/21 03:14:59;;;;;;;25.87;20.57;;;16.10;99.90;;;;;;4993748;28;20200;-74
2021/06/21 03:17:25;;;;;;;24.77;20.40;;;16.10;99.90;;;;;;4977909;28;20649;-75
2021/06/21 03:19:50;;;;;;;23.50;19.60;;;16.10;99.90;;;;;;4994328;28;20177;-74
2021/06/21 03:22:20;;;;;;;22.97;18.90;;;16.00;99.90;;;;;;4994088;28;20207;-74
2021/06/21 03:24:50;;;;;;;23.73;19.00;;;16.00;99.90;;;;;;4977588;28;20188;-74
2021/06/21 03:27:16;;;;;;;21.10;18.53;;;16.00;99.90;;;;;;4994001;28;20670;-74
2021/06/21 03:29:41;;;;;;;22.13;18.20;;;16.00;99.90;;;;;;4992825;28;20184;-74
2021/06/21 03:32:25;;;;;;;21.00;18.03;;;16.00;99.90;;;;;;4992801;28;20172;-74
2021/06/21 03:34:51;;;;;;;23.50;18.27;;;16.00;99.90;;;;;;4976448;28;20184;-74
2021/06/21 03:37:17;;;;;;;20.60;17.67;;;16.00;99.90;;;;;;4976550;28;20203;-74
2021/06/21 03:39:42;;;;;;;21.97;18.00;;;16.00;99.90;;;;;;4993955;28;20194;-74
2021/06/21 03:42:08;;;;;;;19.10;16.97;;;16.00;99.90;;;;;;4992417;28;20216;-74
2021/06/21 03:44:33;;;;;;;22.13;17.20;;;16.00;99.90;;;;;;4994042;28;20180;-74
2021/06/21 03:46:59;;;;;;;17.50;15.67;;;16.00;99.90;;;;;;4993176;28;20211;-74
2021/06/21 03:49:25;;;;;;;18.50;15.67;;;16.00;99.90;;;;;;4976715;28;20184;-74
2021/06/21 03:51:50;;;;;;;19.13;15.80;;;15.90;99.90;;;;;;4994814;28;20176;-74
2021/06/21 03:54:16;;;;;;;21.10;16.33;;;15.90;99.90;;;;;;4998191;28;20184;-74
2021/06/21 03:56:42;;;;;;;19.40;15.10;;;15.90;99.90;;;;;;4997358;28;20258;-74
2021/06/21 03:59:07;;;;;;;16.13;14.20;;;15.90;99.90;;;;;;4998464;28;20679;-74
2021/06/21 04:01:33;;;;;;;19.23;13.80;;;16.00;99.90;;;;;;4997659;28;20545;-74
2021/06/21 04:03:59;;;;;;;17.80;15.13;;;15.90;99.90;;;;;;4996793;28;20246;-74
2021/06/21 04:06:25;;;;;;;16.87;14.50;;;15.90;99.90;;;;;;4997665;28;20232;-74
2021/06/21 04:08:50;;;;;;;14.87;13.30;;;15.90;99.90;;;;;;5012952;28;20211;-74
2021/06/21 04:11:16;;;;;;;19.97;14.00;;;15.90;99.90;;;;;;4997881;28;20498;-74
2021/06/21 04:13:42;;;;;;;16.40;12.97;;;15.90;99.90;;;;;;5013076;28;20184;-74
2021/06/21 04:16:07;;;;;;;14.73;12.83;;;15.90;99.90;;;;;;5013097;28;20263;-74
2021/06/21 04:18:33;;;;;;;14.97;13.37;;;15.90;99.90;;;;;;4998221;28;20591;-74
2021/06/21 04:20:58;;;;;;;15.73;13.40;;;15.90;99.90;;;;;;5013667;28;20208;-74
2021/06/21 04:23:24;;;;;;;17.33;13.07;;;15.90;99.90;;;;;;5014395;28;20172;-74
2021/06/21 04:25:50;;;;;;;17.57;13.77;;;15.90;99.90;;;;;;4999374;28;20286;-76
2021/06/21 04:28:16;;;;;;;14.20;12.70;;;15.90;99.90;;;;;;4997642;28;20652;-75
2021/06/21 04:30:44;;;;;;;14.43;11.83;;;15.90;99.90;;;;;;4997627;28;20239;-78
2021/06/21 04:33:09;;;;;;;14.30;12.50;;;15.90;99.90;;;;;;4995955;28;20280;-78
2021/06/21 04:35:35;;;;;;;13.17;11.73;;;15.90;99.90;;;;;;4995265;28;20294;-73
2021/06/21 04:38:00;;;;;;;13.30;10.93;;;15.90;99.90;;;;;;5011168;28;20188;-75
2021/06/21 04:40:30;;;;;;;12.27;10.37;;;16.00;99.90;;;;;;5010877;28;20183;-77
2021/06/21 04:42:56;;;;;;;12.13;10.80;;;16.00;99.90;;;;;;5010963;28;20156;-76
2021/06/21 04:45:22;;;;;;;13.13;10.63;;;16.00;99.90;;;;;;5010727;28;20242;-77
2021/06/21 04:47:47;;;;;;;13.70;11.30;;;15.90;99.90;;;;;;4995682;28;20710;-76
2021/06/21 04:50:14;;;;;;;12.37;10.77;;;16.00;99.90;;;;;;4994341;28;20185;-76
2021/06/21 04:52:41;;;;;;;13.63;10.17;;;15.90;99.90;;;;;;5010561;28;20177;-74
2021/06/21 04:55:08;;;;;;;12.60;10.90;;;15.90;99.90;;;;;;5010467;28;20671;-74
2021/06/21 04:57:34;;;;;;;12.70;10.83;;;15.90;99.90;;;;;;5010815;28;20311;-74
2021/06/21 04:59:59;;;;;;;11.50;10.30;;;15.90;99.90;;;;;;5012085;28;20188;-74
2021/06/21 05:02:25;;;;;;;11.07;9.87;;;15.90;99.90;;;;;;4995506;28;20235;-74
2021/06/21 05:04:51;;;;;;;10.50;9.30;;;15.90;99.90;;;;;;5010961;28;20317;-75
2021/06/21 05:07:16;;;;;;;10.77;8.77;;;16.40;99.90;;;;;;4995108;28;20196;-74
2021/06/21 05:09:42;;;;;;;12.53;9.07;;;16.00;99.90;;;;;;5010791;28;20178;-74
2021/06/21 05:12:09;;;;;;;9.67;8.60;;;15.90;99.90;;;;;;4993912;28;20180;-74
2021/06/21 05:14:36;;;;;;;9.43;7.87;;;;;;;;;;4994936;28;20219;-74
2021/06/21 05:17:02;;;;;;;8.37;7.57;;;16.00;99.90;;;;;;4993887;28;20205;-74
2021/06/21 05:19:28;;;;;;;8.63;7.73;;;16.00;99.90;;;;;;5010241;28;20173;-74
2021/06/21 05:21:54;;;;;;;8.60;7.67;;;16.00;99.90;;;;;;4996728;28;20188;-75
2021/06/21 05:24:20;;;;;;;8.63;7.73;;;16.00;99.90;;;;;;4980978;28;20210;-75
2021/06/21 05:26:47;;;;;;;9.90;8.03;;;16.10;99.90;;;;;;4979549;28;20243;-75
2021/06/21 05:29:13;;;;;;;9.13;8.20;;;15.90;99.90;;;;;;4981121;28;20180;-75
2021/06/21 05:31:40;;;;;;;8.90;8.00;;;16.20;99.90;;;;;;4996123;28;20239;-75
2021/06/21 05:34:07;;;;;;;9.37;8.47;;;16.10;99.90;;;;;;4994374;28;20212;-76
2021/06/21 05:36:33;;;;;;;8.27;7.50;;;16.60;99.90;;;;;;4976855;28;20204;-76
2021/06/21 05:38:58;;;;;;;9.70;7.57;;;16.20;99.90;;;;;;4976295;28;20657;-75
2021/06/21 05:41:24;;;;;;;8.37;7.57;;;16.20;99.90;;;;;;4973674;28;20575;-73
2021/06/21 05:43:49;;;;;;;9.03;7.80;;;16.20;99.90;;;;;;4990032;28;20173;-75
2021/06/21 05:46:15;;;;;;;9.27;8.43;;;16.20;99.90;;;;;;4973782;28;20225;-75
2021/06/21 05:48:40;;;;;;;8.27;7.37;;;16.20;99.90;;;;;;4989811;28;20587;-75
2021/06/21 05:51:06;;;;;;;10.30;7.87;;;16.20;99.90;;;;;;4973263;28;20181;-75
2021/06/21 05:53:32;;;;;;;8.43;7.67;;;16.30;99.90;;;;;;4990385;28;20181;-75
2021/06/21 05:55:58;;;;;;;8.63;7.73;;;16.30;99.90;;;;;;4975390;28;20708;-75
2021/06/21 05:58:23;;;;;;;9.57;7.50;;;16.30;99.90;;;;;;4990955;28;20200;-75
2021/06/21 06:00:49;;;;;;;8.03;7.20;;;16.30;99.90;;;;;;4989990;28;20211;-73
2021/06/21 06:03:14;;;;;;;7.60;6.90;;;16.40;99.90;;;;;;4989537;28;20561;-73
2021/06/21 06:05:40;;;;;;;7.97;7.27;;;16.40;99.90;;;;;;4989207;28;20677;-73
2021/06/21 06:08:05;;;;;;;7.83;6.90;;;16.40;99.90;;;;;;4989766;28;20552;-74
2021/06/21 06:10:31;;;;;;;7.67;6.87;;;16.50;99.90;;;;;;4973509;28;20699;-73
2021/06/21 06:12:57;;;;;;;8.93;6.93;;;16.50;99.90;;;;;;4989409;28;20176;-73
2021/06/21 06:15:23;;;;;;;7.50;6.20;;;16.50;99.90;;;;;;4988862;28;20208;-73
2021/06/21 06:17:49;;;;;;;7.07;6.40;;;16.50;99.90;;;;;;4973523;28;20194;-73
2021/06/21 06:20:15;;;;;;;6.90;6.30;;;16.40;99.90;;;;;;4973461;28;20177;-73
2021/06/21 06:22:40;;;;;;;6.33;5.73;;;16.40;99.90;;;;;;4989609;28;20629;-75
2021/06/21 06:25:06;;;;;;;7.97;6.10;;;16.50;99.90;;;;;;4989196;28;20187;-73
2021/06/21 06:27:32;;;;;;;6.47;5.83;;;16.50;99.90;;;;;;4989475;28;20182;-73
2021/06/21 06:29:58;;;;;;;6.20;5.63;;;16.50;99.90;;;;;;4989077;28;20236;-73
2021/06/21 06:32:23;;;;;;;6.97;6.07;;;16.50;99.90;;;;;;4974476;28;20284;-73
2021/06/21 06:34:49;;;;;;;6.47;5.93;;;16.40;99.90;;;;;;4993289;28;20182;-73
2021/06/21 06:37:14;;;;;;;5.80;5.30;;;16.50;99.90;;;;;;4974104;28;20207;-73
2021/06/21 06:39:40;;;;;;;6.27;5.67;;;16.50;99.90;;;;;;4990807;28;20653;-76
2021/06/21 06:42:06;;;;;;;7.20;6.50;;;16.40;99.90;;;;;;4993301;28;20484;-74
2021/06/21 06:44:32;;;;;;;6.03;5.50;;;16.40;99.90;;;;;;4975199;28;20637;-73
2021/06/21 06:46:58;;;;;;;6.30;5.80;;;16.40;99.90;;;;;;4991846;28;20192;-76
2021/06/21 06:49:25;;;;;;;6.87;6.27;;;16.50;99.90;;;;;;4991375;28;20192;-74
2021/06/21 06:51:53;;;;;;;6.17;5.27;;;16.50;99.90;;;;;;4991143;28;20181;-75
2021/06/21 06:57:04;;;;;;;6.63;6.03;;;16.60;99.90;;;;;;4992341;28;20231;-77
2021/06/21 06:59:34;;;;;;;5.50;5.00;;;16.50;99.90;;;;;;4979283;28;20522;-78
2021/06/21 07:02:00;;;;;;;4.37;3.97;;;16.60;99.90;;;;;;4992154;28;20579;-77
2021/06/21 07:04:26;;;;;;;3.57;3.27;;;16.50;99.90;;;;;;4992462;28;20171;-80
2021/06/21 07:06:52;;;;;;;3.80;3.50;;;16.50;99.90;;;;;;4993017;28;20212;-79
2021/06/21 07:09:19;;;;;;;4.40;3.17;;;16.50;99.90;;;;;;4993217;28;20178;-75
2021/06/21 07:11:47;;;;;;;3.80;3.50;;;16.50;99.90;;;;;;4978781;28;20195;-77
2021/06/21 07:14:13;;;;;;;3.47;3.17;;;16.60;99.90;;;;;;4975795;28;20176;-75
2021/06/21 07:16:39;;;;;;;3.07;2.80;;;16.60;99.90;;;;;;4991828;28;20247;-75
2021/06/21 07:19:04;;;;;;;3.20;2.90;;;16.60;99.90;;;;;;4992262;28;20242;-75
2021/06/21 07:21:30;;;;;;;3.40;3.07;;;16.60;99.90;;;;;;4992396;28;20203;-75
2021/06/21 07:23:56;;;;;;;5.40;3.00;;;16.50;99.90;;;;;;4975113;28;20176;-75
2021/06/21 07:26:21;;;;;;;3.33;3.03;;;16.50;99.90;;;;;;4991398;28;20621;-75
2021/06/21 07:28:47;;;;;;;5.10;3.40;;;16.50;99.90;;;;;;5007788;28;20653;-75
2021/06/21 07:31:12;;;;;;;5.50;4.43;;;16.50;99.90;;;;;;4991570;28;20187;-75
2021/06/21 07:33:39;;;;;;;4.03;3.73;;;16.00;99.90;;;;;;4991327;28;20204;-75
2021/06/21 07:36:05;;;;;;;3.57;3.07;;;16.50;99.90;;;;;;4975168;28;20240;-75
2021/06/21 07:38:30;;;;;;;3.83;3.53;;;16.60;99.90;;;;;;4975187;28;20218;-75
2021/06/21 07:40:56;;;;;;;4.10;3.70;;;16.60;99.90;;;;;;4975028;28;20243;-75
2021/06/21 07:43:21;;;;;;;3.83;3.37;;;16.70;99.90;;;;;;4991240;28;20187;-75
2021/06/21 07:45:47;;;;;;;3.77;3.33;;;16.70;99.90;;;;;;4992059;28;20356;-75
2021/06/21 07:48:13;;;;;;;3.47;3.17;;;16.80;99.90;;;;;;4975058;28;20207;-75
2021/06/21 07:50:39;;;;;;;3.60;2.83;;;16.80;99.90;;;;;;4975053;28;20558;-75
2021/06/21 07:53:06;;;;;;;3.20;2.90;;;16.80;99.90;;;;;;4974831;28;20184;-75
2021/06/21 07:55:32;;;;;;;3.37;3.07;;;16.70;99.90;;;;;;4991200;28;20547;-75
2021/06/21 07:57:57;;;;;;;3.50;3.20;;;16.70;99.90;;;;;;4991317;28;20263;-74
2021/06/21 08:00:24;;;;;;;3.50;3.17;;;16.70;99.90;;;;;;4991211;28;20191;-75
2021/06/21 08:02:53;;;;;;;3.93;3.10;;;16.80;99.90;;;;;;4990944;28;20492;-75
2021/06/21 08:05:19;;;;;;;3.63;3.33;;;16.80;99.90;;;;;;4991391;28;20214;-75
2021/06/21 08:07:45;;;;;;;3.77;3.23;;;16.80;99.90;;;;;;4991250;28;20687;-75
2021/06/21 08:10:11;;;;;;;3.20;2.90;;;16.80;99.90;;;;;;4991223;28;20182;-75
2021/06/21 08:12:39;;;;;;;3.30;3.00;;;16.70;99.90;;;;;;4991110;28;20551;-75
2021/06/21 08:15:05;;;;;;;3.80;3.27;;;16.70;99.90;;;;;;4975019;28;20181;-74
2021/06/21 08:17:31;;;;;;;4.10;3.40;;;16.80;99.90;;;;;;5006878;28;20188;-75
2021/06/21 08:19:57;;;;;;;3.60;3.30;;;16.70;99.90;;;;;;4992154;28;20192;-75
2021/06/21 08:22:22;;;;;;;3.37;3.07;;;16.70;99.90;;;;;;4990889;28;20298;-75
2021/06/21 08:24:51;;;;;;;4.90;3.10;;;16.80;99.90;;;;;;4974421;28;20194;-75
2021/06/21 08:27:16;;;;;;;3.50;3.20;;;16.90;99.90;;;;;;4974551;28;20200;-75
2021/06/21 08:29:42;;;;;;;3.67;3.00;;;16.90;99.90;;;;;;4992237;28;20180;-75
2021/06/21 08:32:08;;;;;;;3.40;3.10;;;16.90;99.90;;;;;;4991032;28;20176;-74
2021/06/21 08:34:33;;;;;;;3.87;2.93;;;16.90;99.90;;;;;;4975386;28;20191;-78
2021/06/21 08:36:59;;;;;;;4.43;4.00;;;16.90;99.90;;;;;;4991123;28;20227;-77
2021/06/21 08:39:25;;;;;;;4.30;3.90;;;17.00;99.90;;;;;;4975808;28;20211;-78
2021/06/21 08:41:50;;;;;;;3.67;3.37;;;17.00;99.90;;;;;;4994602;28;20210;-77
2021/06/21 08:44:16;;;;;;;3.17;2.83;;;17.10;99.90;;;;;;4978048;28;20200;-77
2021/06/21 08:46:42;;;;;;;3.33;2.90;;;17.10;99.90;;;;;;4994494;28;20669;-78
2021/06/21 08:49:07;;;;;;;3.20;3.00;;;17.20;99.90;;;;;;4978103;28;20183;-77
2021/06/21 08:51:36;;;;;;;3.60;3.10;;;17.20;99.90;;;;;;4994551;28;20176;-77
2021/06/21 08:54:03;;;;;;;3.27;2.60;;;17.30;99.90;;;;;;4977869;28;20188;-77
2021/06/21 08:56:28;;;;;;;2.87;2.67;;;17.40;99.90;;;;;;4978177;28;20615;-77
2021/06/21 08:58:54;;;;;;;3.00;2.80;;;17.70;99.90;;;;;;4977932;28;20180;-77
2021/06/21 09:01:20;;;;;;;3.80;2.80;;;18.00;99.90;;;;;;4994547;28;20254;-79
2021/06/21 09:03:45;;;;;;;2.90;2.70;;;18.30;99.90;;;;;;4978088;28;20262;-77
2021/06/21 09:06:19;;;;;;;2.50;2.30;;;18.50;99.90;;;;;;4993992;28;20204;-77
2021/06/21 09:09:11;;;;;;;3.47;2.40;;;18.50;99.90;;;;;;4996207;28;20179;-77
2021/06/21 09:11:46;;;;;;;4.50;2.43;;;18.40;99.90;;;;;;4992983;28;20251;-78
2021/06/21 09:14:29;;;;;;;3.20;2.50;;;18.50;99.90;;;;;;4995913;28;20175;-78
2021/06/21 09:16:57;;;;;;;3.07;2.27;;;18.40;99.90;;;;;;4994483;28;20203;-77
2021/06/21 09:19:23;;;;;;;2.70;2.50;;;18.50;99.90;;;;;;4978695;28;20595;-73
2021/06/21 09:21:48;;;;;;;5.87;2.70;;;18.50;99.90;;;;;;4993546;28;20259;-73
2021/06/21 09:24:23;;;;;;;3.27;2.63;;;18.40;99.90;;;;;;4993471;28;20172;-73
2021/06/21 09:26:51;;;;;;;2.70;2.50;;;18.30;99.90;;;;;;4993717;28;20190;-72
2021/06/21 09:29:16;;;;;;;4.23;2.50;;;18.40;99.90;;;;;;4977511;28;20698;-74
2021/06/21 09:31:53;;;;;;;2.80;2.60;;;18.60;99.90;;;;;;4993764;28;20180;-75
2021/06/21 09:34:20;;;;;;;3.43;2.90;;;18.70;99.90;;;;;;4995209;28;20172;-77
2021/06/21 09:36:45;;;;;;;4.10;2.50;;;18.60;99.90;;;;;;4981354;28;20295;-75
2021/06/21 09:39:25;;;;;;;2.40;2.20;;;18.60;99.90;;;;;;5032104;23;20261;-75
2021/06/21 09:42:26;;;;;;;3.57;2.63;;;18.70;99.90;;;;;;5058191;28;20624;-75
2021/06/21 09:45:01;;;;;;;3.70;2.67;;;18.60;99.90;;;;;;5073282;28;20181;-75
2021/06/21 09:47:39;;;;;;;3.60;3.30;;;18.50;99.90;;;;;;5073561;28;20173;-75
2021/06/21 09:50:31;;;;;;;4.03;3.53;;;18.50;99.90;;;;;;5051715;28;20213;-75
2021/06/21 09:53:02;;;;;;;8.80;7.87;;;18.50;99.90;;;;;;5035864;28;20602;-75
2021/06/21 09:55:40;;;;;;;4.60;4.20;;;18.40;99.90;;;;;;5052784;28;20236;-75
2021/06/21 09:58:26;;;;;;;4.60;4.30;;;18.30;99.90;;;;;;5048172;28;20211;-75
2021/06/21 10:01:06;;;;;;;7.37;4.83;;;18.20;99.90;;;;;;5051526;28;20653;-75
2021/06/21 10:03:40;;;;;;;6.93;5.00;;;18.70;99.90;;;;;;5035504;28;20221;-75
2021/06/21 10:06:10;;;;;;;4.87;4.47;;;18.20;99.90;;;;;;5036147;28;20175;-75
2021/06/21 10:08:46;;;;;;;5.83;5.20;;;18.10;99.90;;;;;;5052125;28;20210;-75
2021/06/21 10:11:28;;;;;;;5.60;5.10;;;18.00;99.90;;;;;;5036197;28;20584;-76
2021/06/21 10:13:55;;;;;;;5.57;4.90;;;18.10;99.90;;;;;;5052488;28;20175;-75
2021/06/21 10:16:20;;;;;;;5.10;4.70;;;18.10;99.90;;;;;;5036683;28;20633;-75
2021/06/21 10:18:46;;;;;;;5.10;4.60;;;18.10;99.90;;;;;;5037827;28;20207;-75
2021/06/21 10:21:11;;;;;;;5.60;5.10;;;18.10;99.90;;;;;;5036226;28;20697;-75
2021/06/21 10:23:37;;;;;;;5.87;5.37;;;18.10;99.90;;;;;;5035479;28;20186;-75
2021/06/21 10:26:03;;;;;;;6.37;5.87;;;18.10;99.90;;;;;;5036193;28;20175;-74
2021/06/21 10:28:28;;;;;;;6.20;5.70;;;18.10;99.90;;;;;;5018315;28;20209;-75
2021/06/21 10:30:54;;;;;;;7.00;5.30;;;18.10;99.90;;;;;;5034806;28;20179;-75
2021/06/21 10:33:20;;;;;;;6.50;5.10;;;18.10;99.90;;;;;;5035038;28;20194;-74
2021/06/21 10:35:45;;;;;;;4.80;4.40;;;18.10;99.90;;;;;;5017670;28;20191;-74
2021/06/21 10:38:11;;;;;;;5.10;4.60;;;18.00;99.90;;;;;;5034979;28;20191;-74
2021/06/21 10:40:55;;;;;;;6.63;4.70;;;18.00;99.90;;;;;;5034387;28;20183;-74
2021/06/21 10:43:48;;;;;;;4.77;4.40;;;18.00;99.90;;;;;;5034914;28;20175;-74
2021/06/21 10:46:30;;;;;;;5.33;4.30;;;18.10;99.90;;;;;;5049541;28;20186;-73
2021/06/21 10:49:07;;;;;;;4.87;4.00;;;18.10;99.90;;;;;;5036305;28;20190;-75
2021/06/21 10:51:37;;;;;;;3.33;3.00;;;18.10;99.90;;;;;;5053021;28;20208;-74
2021/06/21 10:54:05;;;;;;;3.53;3.23;;;18.10;99.90;;;;;;5035868;28;20218;-75
2021/06/21 10:56:43;;;;;;;3.03;2.83;;;18.00;99.90;;;;;;5033206;28;20180;-76
2021/06/21 10:59:13;;;;;;;3.30;3.00;;;17.90;99.90;;;;;;5031123;28;20195;-79
2021/06/21 11:01:50;;;;;;;3.47;2.80;;;17.80;99.90;;;;;;5029977;28;20196;-79
2021/06/21 11:04:45;;;;;;;3.63;3.10;;;17.80;99.90;;;;;;5031930;28;20217;-79
2021/06/21 11:07:14;;;;;;;4.40;2.73;;;17.80;99.90;;;;;;5021562;28;20274;-79
2021/06/21 11:09:44;;;;;;;3.30;2.67;;;17.80;99.90;;;;;;5035507;28;20195;-78
2021/06/21 11:12:26;;;;;;;3.47;2.73;;;17.60;99.90;;;;;;5052441;28;20665;-80
2021/06/21 11:15:07;;;;;;;3.27;2.33;;;17.70;99.90;;;;;;5049279;28;20182;-80
2021/06/21 11:17:53;;;;;;;4.80;2.43;;;17.50;99.90;;;;;;5049580;28;20190;-79
2021/06/21 11:20:39;;;;;;;5.03;2.70;;;17.60;99.90;;;;;;5033285;28;20170;-79
2021/06/21 11:23:08;;;;;;;2.57;2.37;;;17.50;99.90;;;;;;5050303;28;20194;-79
2021/06/21 11:25:47;;;;;;;4.00;2.80;;;17.50;99.90;;;;;;5018941;28;20171;-79
2021/06/21 11:28:39;;;;;;;2.93;2.63;;;17.40;99.90;;;;;;5017719;28;20670;-79
2021/06/21 11:31:24;;;;;;;4.03;2.60;;;17.40;99.90;;;;;;5034317;28;20185;-77
2021/06/21 11:34:07;;;;;;;2.70;2.50;;;17.40;99.90;;;;;;5036408;28;20185;-78
2021/06/21 11:36:46;;;;;;;3.10;2.80;;;17.40;99.90;;;;;;5034913;28;20212;-74
2021/06/21 11:39:28;;;;;;;3.67;3.07;;;17.20;99.90;;;;;;5015401;28;20236;-74
2021/06/21 11:41:58;;;;;;;3.43;3.17;;;17.20;99.90;;;;;;5015249;28;20206;-74
2021/06/21 11:44:36;;;;;;;3.67;3.37;;;17.20;99.90;;;;;;5032042;28;20155;-79
2021/06/21 11:47:02;;;;;;;3.73;3.40;;;17.10;99.90;;;;;;5033799;28;20185;-79
2021/06/21 11:49:27;;;;;;;4.70;3.60;;;17.10;99.90;;;;;;5031823;28;20194;-78
2021/06/21 11:51:58;;;;;;;4.20;3.80;;;17.10;99.90;;;;;;5014536;28;20733;-78
2021/06/21 11:54:24;;;;;;;4.27;3.87;;;17.20;99.90;;;;;;5030927;28;20552;-78
2021/06/21 11:56:51;;;;;;;4.63;4.20;;;17.20;99.90;;;;;;5030642;28;20179;-78
2021/06/21 11:59:27;;;;;;;4.63;4.33;;;17.30;99.90;;;;;;5030734;28;20634;-78
2021/06/21 12:02:03;;;;;;;7.43;4.73;;;17.20;99.90;;;;;;5031186;28;20210;-80
2021/06/21 12:04:29;;;;;;;5.23;4.63;;;17.20;99.90;;;;;;5031170;28;20189;-78
2021/06/21 12:06:55;;;;;;;5.17;4.77;;;17.20;99.90;;;;;;5014719;28;20171;-79
2021/06/21 12:09:20;;;;;;;6.00;5.30;;;17.10;99.90;;;;;;5030581;28;20182;-79
2021/06/21 12:11:50;;;;;;;5.23;4.83;;;17.10;99.90;;;;;;5031908;28;20187;-79
2021/06/21 12:14:22;;;;;;;8.50;5.03;;;17.00;99.90;;;;;;5036883;28;20250;-79
2021/06/21 12:16:48;;;;;;;5.57;5.17;;;17.00;99.90;;;;;;5020566;28;20630;-79
2021/06/21 12:19:13;;;;;;;5.97;5.17;;;17.10;99.90;;;;;;5034979;28;20201;-77
2021/06/21 12:21:43;;;;;;;5.67;5.17;;;17.10;99.90;;;;;;5035837;28;20209;-79
2021/06/21 12:24:26;;;;;;;6.17;4.57;;;17.10;99.90;;;;;;5034927;28;20179;-78
2021/06/21 12:27:12;;;;;;;5.00;4.50;;;17.00;99.90;;;;;;5034375;28;20156;-79
2021/06/21 12:29:38;;;;;;;4.83;4.43;;;17.10;99.90;;;;;;5033275;28;20232;-79
2021/06/21 12:32:27;;;;;;;5.20;4.77;;;17.00;99.90;;;;;;5017529;28;20677;-78
2021/06/21 12:35:00;;;;;;;5.53;5.10;;;17.00;99.90;;;;;;5050482;28;20171;-79
2021/06/21 12:37:27;;;;;;;8.17;5.90;;;17.00;99.90;;;;;;5034103;28;20197;-78
2021/06/21 12:39:57;;;;;;;5.30;4.80;;;17.00;99.90;;;;;;5033687;28;20260;-78
2021/06/21 12:42:24;;;;;;;6.00;5.40;;;16.90;99.90;;;;;;5034013;28;20561;-78
2021/06/21 12:44:49;;;;;;;5.33;4.83;;;16.80;99.90;;;;;;5033578;28;20217;-78
2021/06/21 12:47:20;;;;;;;4.60;4.20;;;16.70;99.90;;;;;;5017754;28;20174;-79
2021/06/21 12:49:46;;;;;;;6.00;4.60;;;16.60;99.90;;;;;;5035967;28;20187;-80